sensor_id;sensor_type;location;lat;lon;timestamp;P1;durP1;ratioP1;P2;durP2;ratioP2
62790;SDS011;48830;53.426;10.300;2023-02-11T00:03:45;41.80;;;23.70;;
62790;SDS011;48830;53.426;10.300;2023-02-11T00:06:10;43.07;;;23.50;;
62790;SDS011;48830;53.426;10.300;2023-02-11T00:08:36;43.67;;;24.03;;
62790;SDS011;48830;53.426;10.300;2023-02-11T00:11:02;41.07;;;23.80;;
62790;SDS011;48830;53.426;10.300;2023-02-11T00:13:28;43.77;;;24.07;;
62790;SDS011;48830;53.426;10.300;2023-02-11T00:15:53;45.63;;;24.33;;
62790;SDS011;48830;53.426;10.300;2023-02-11T00:18:20;50.27;;;24.27;;
62790;SDS011;48830;53.426;10.300;2023-02-11T00:20:46;42.87;;;23.23;;
62790;SDS011;48830;53.426;10.300;2023-02-11T00:23:12;41.27;;;24.87;;
62790;SDS011;48830;53.426;10.300;2023-02-11T00:25:38;44.53;;;24.67;;
62790;SDS011;48830;53.426;10.300;2023-02-11T00:28:08;43.07;;;23.63;;
62790;SDS011;48830;53.426;10.300;2023-02-11T00:30:34;44.57;;;24.80;;
62790;SDS011;48830;53.426;10.300;2023-02-11T00:33:00;47.50;;;24.70;;
62790;SDS011;48830;53.426;10.300;2023-02-11T00:35:26;42.37;;;25.20;;
62790;SDS011;48830;53.426;10.300;2023-02-11T00:37:52;43.20;;;24.87;;
62790;SDS011;48830;53.426;10.300;2023-02-11T00:40:18;39.27;;;24.27;;
62790;SDS011;48830;53.426;10.300;2023-02-11T00:42:44;42.60;;;24.90;;
62790;SDS011;48830;53.426;10.300;2023-02-11T00:45:09;42.43;;;25.63;;
62790;SDS011;48830;53.426;10.300;2023-02-11T00:47:35;47.03;;;25.53;;
62790;SDS011;48830;53.426;10.300;2023-02-11T00:50:01;42.53;;;24.90;;
62790;SDS011;48830;53.426;10.300;2023-02-11T00:52:29;47.23;;;27.33;;
62790;SDS011;48830;53.426;10.300;2023-02-11T00:54:57;48.40;;;25.30;;
62790;SDS011;48830;53.426;10.300;2023-02-11T00:57:23;48.17;;;26.07;;
62790;SDS011;48830;53.426;10.300;2023-02-11T00:59:48;45.90;;;26.07;;
62790;SDS011;48830;53.426;10.300;2023-02-11T01:02:14;44.30;;;26.77;;
62790;SDS011;48830;53.426;10.300;2023-02-11T01:04:41;44.90;;;24.00;;
62790;SDS011;48830;53.426;10.300;2023-02-11T01:07:07;47.93;;;26.70;;
62790;SDS011;48830;53.426;10.300;2023-02-11T01:09:33;50.70;;;26.23;;
62790;SDS011;48830;53.426;10.300;2023-02-11T01:11:58;47.30;;;26.60;;
62790;SDS011;48830;53.426;10.300;2023-02-11T01:14:24;50.87;;;27.43;;
62790;SDS011;48830;53.426;10.300;2023-02-11T01:16:49;47.13;;;27.27;;
62790;SDS011;48830;53.426;10.300;2023-02-11T01:19:15;46.77;;;27.47;;
62790;SDS011;48830;53.426;10.300;2023-02-11T01:21:43;50.47;;;28.47;;
62790;SDS011;48830;53.426;10.300;2023-02-11T01:24:08;49.40;;;27.50;;
62790;SDS011;48830;53.426;10.300;2023-02-11T01:26:34;46.00;;;28.67;;
62790;SDS011;48830;53.426;10.300;2023-02-11T01:29:00;48.37;;;27.70;;
62790;SDS011;48830;53.426;10.300;2023-02-11T01:31:26;46.57;;;27.63;;
62790;SDS011;48830;53.426;10.300;2023-02-11T01:33:51;48.50;;;27.43;;
62790;SDS011;48830;53.426;10.300;2023-02-11T01:36:17;51.33;;;29.80;;
62790;SDS011;48830;53.426;10.300;2023-02-11T01:38:42;50.53;;;29.67;;
62790;SDS011;48830;53.426;10.300;2023-02-11T01:41:10;52.83;;;28.70;;
62790;SDS011;48830;53.426;10.300;2023-02-11T01:43:40;49.37;;;28.70;;
62790;SDS011;48830;53.426;10.300;2023-02-11T01:48:44;48.90;;;27.83;;
62790;SDS011;48830;53.426;10.300;2023-02-11T01:51:18;52.90;;;29.63;;
62790;SDS011;48830;53.426;10.300;2023-02-11T01:53:48;52.47;;;29.40;;
62790;SDS011;48830;53.426;10.300;2023-02-11T01:56:33;46.83;;;27.60;;
62790;SDS011;48830;53.426;10.300;2023-02-11T01:59:24;51.90;;;29.83;;
62790;SDS011;48830;53.426;10.300;2023-02-11T02:01:58;53.13;;;28.97;;
62790;SDS011;48830;53.426;10.300;2023-02-11T02:04:30;48.23;;;28.30;;
62790;SDS011;48830;53.426;10.300;2023-02-11T02:07:07;50.47;;;28.63;;
62790;SDS011;48830;53.426;10.300;2023-02-11T02:09:39;53.40;;;29.67;;
62790;SDS011;48830;53.426;10.300;2023-02-11T02:12:07;52.30;;;28.73;;
62790;SDS011;48830;53.426;10.300;2023-02-11T02:14:36;50.80;;;27.07;;
62790;SDS011;48830;53.426;10.300;2023-02-11T02:17:03;47.23;;;27.53;;
62790;SDS011;48830;53.426;10.300;2023-02-11T02:31:19;50.07;;;27.27;;
62790;SDS011;48830;53.426;10.300;2023-02-11T02:36:33;48.53;;;26.13;;
62790;SDS011;48830;53.426;10.300;2023-02-11T02:39:07;51.13;;;27.37;;
62790;SDS011;48830;53.426;10.300;2023-02-11T02:41:44;47.73;;;25.43;;
62790;SDS011;48830;53.426;10.300;2023-02-11T02:44:11;47.43;;;25.43;;
62790;SDS011;48830;53.426;10.300;2023-02-11T02:46:36;49.70;;;24.93;;
62790;SDS011;48830;53.426;10.300;2023-02-11T02:49:02;50.67;;;25.47;;
62790;SDS011;48830;53.426;10.300;2023-02-11T03:05:17;42.00;;;22.93;;
62790;SDS011;48830;53.426;10.300;2023-02-11T03:07:50;44.50;;;22.97;;
62790;SDS011;48830;53.426;10.300;2023-02-11T03:10:30;40.20;;;21.77;;
62790;SDS011;48830;53.426;10.300;2023-02-11T03:13:00;41.93;;;22.90;;
62790;SDS011;48830;53.426;10.300;2023-02-11T03:15:28;39.20;;;22.67;;
62790;SDS011;48830;53.426;10.300;2023-02-11T03:17:57;43.30;;;21.93;;
62790;SDS011;48830;53.426;10.300;2023-02-11T03:20:24;42.60;;;23.10;;
62790;SDS011;48830;53.426;10.300;2023-02-11T03:25:44;42.90;;;23.07;;
62790;SDS011;48830;53.426;10.300;2023-02-11T03:28:28;45.13;;;23.07;;
62790;SDS011;48830;53.426;10.300;2023-02-11T03:31:07;43.17;;;23.53;;
62790;SDS011;48830;53.426;10.300;2023-02-11T03:36:31;43.90;;;22.30;;
62790;SDS011;48830;53.426;10.300;2023-02-11T03:39:06;45.30;;;22.17;;
62790;SDS011;48830;53.426;10.300;2023-02-11T03:41:35;43.13;;;23.67;;
62790;SDS011;48830;53.426;10.300;2023-02-11T03:44:01;42.53;;;23.53;;
62790;SDS011;48830;53.426;10.300;2023-02-11T03:46:31;48.50;;;22.73;;
62790;SDS011;48830;53.426;10.300;2023-02-11T03:49:05;46.23;;;23.20;;
62790;SDS011;48830;53.426;10.300;2023-02-11T03:51:36;48.87;;;23.40;;
62790;SDS011;48830;53.426;10.300;2023-02-11T03:54:05;40.77;;;23.73;;
62790;SDS011;48830;53.426;10.300;2023-02-11T03:56:37;43.13;;;23.30;;
62790;SDS011;48830;53.426;10.300;2023-02-11T03:59:08;44.23;;;22.27;;
62790;SDS011;48830;53.426;10.300;2023-02-11T04:01:33;43.60;;;22.27;;
62790;SDS011;48830;53.426;10.300;2023-02-11T04:03:58;42.67;;;21.93;;
62790;SDS011;48830;53.426;10.300;2023-02-11T04:06:24;40.67;;;22.40;;
62790;SDS011;48830;53.426;10.300;2023-02-11T04:08:49;38.67;;;21.30;;
62790;SDS011;48830;53.426;10.300;2023-02-11T04:11:15;38.53;;;21.77;;
62790;SDS011;48830;53.426;10.300;2023-02-11T04:13:40;45.57;;;22.70;;
62790;SDS011;48830;53.426;10.300;2023-02-11T04:16:06;48.23;;;22.03;;
62790;SDS011;48830;53.426;10.300;2023-02-11T04:18:31;46.87;;;21.93;;
62790;SDS011;48830;53.426;10.300;2023-02-11T04:20:57;39.83;;;21.90;;
62790;SDS011;48830;53.426;10.300;2023-02-11T04:23:22;38.77;;;20.27;;
62790;SDS011;48830;53.426;10.300;2023-02-11T04:25:48;36.93;;;20.77;;
62790;SDS011;48830;53.426;10.300;2023-02-11T04:28:14;40.90;;;19.63;;
62790;SDS011;48830;53.426;10.300;2023-02-11T04:30:39;35.90;;;19.70;;
62790;SDS011;48830;53.426;10.300;2023-02-11T04:33:05;35.17;;;18.47;;
62790;SDS011;48830;53.426;10.300;2023-02-11T04:35:30;34.80;;;19.10;;
62790;SDS011;48830;53.426;10.300;2023-02-11T04:37:55;34.67;;;18.07;;
62790;SDS011;48830;53.426;10.300;2023-02-11T04:40:21;35.90;;;17.43;;
62790;SDS011;48830;53.426;10.300;2023-02-11T04:42:47;33.67;;;18.77;;
62790;SDS011;48830;53.426;10.300;2023-02-11T04:45:12;35.47;;;18.70;;
62790;SDS011;48830;53.426;10.300;2023-02-11T04:47:37;39.70;;;18.67;;
62790;SDS011;48830;53.426;10.300;2023-02-11T04:50:03;33.30;;;17.13;;
62790;SDS011;48830;53.426;10.300;2023-02-11T04:52:29;32.50;;;16.90;;
62790;SDS011;48830;53.426;10.300;2023-02-11T04:54:54;33.10;;;16.30;;
62790;SDS011;48830;53.426;10.300;2023-02-11T04:57:20;28.20;;;16.27;;
62790;SDS011;48830;53.426;10.300;2023-02-11T04:59:45;34.23;;;16.43;;
62790;SDS011;48830;53.426;10.300;2023-02-11T05:02:11;29.87;;;15.77;;
62790;SDS011;48830;53.426;10.300;2023-02-11T05:04:36;28.97;;;16.83;;
62790;SDS011;48830;53.426;10.300;2023-02-11T05:07:02;32.30;;;16.20;;
62790;SDS011;48830;53.426;10.300;2023-02-11T05:09:27;31.30;;;16.50;;
62790;SDS011;48830;53.426;10.300;2023-02-11T05:11:53;32.30;;;16.03;;
62790;SDS011;48830;53.426;10.300;2023-02-11T05:14:18;30.10;;;15.33;;
62790;SDS011;48830;53.426;10.300;2023-02-11T05:16:43;32.50;;;15.40;;
62790;SDS011;48830;53.426;10.300;2023-02-11T05:19:09;29.73;;;15.77;;
62790;SDS011;48830;53.426;10.300;2023-02-11T05:21:34;30.90;;;14.73;;
62790;SDS011;48830;53.426;10.300;2023-02-11T05:24:00;30.30;;;15.57;;
62790;SDS011;48830;53.426;10.300;2023-02-11T05:26:25;30.87;;;14.97;;
62790;SDS011;48830;53.426;10.300;2023-02-11T05:28:51;27.07;;;14.43;;
62790;SDS011;48830;53.426;10.300;2023-02-11T05:31:16;30.73;;;14.63;;
62790;SDS011;48830;53.426;10.300;2023-02-11T05:33:42;29.57;;;15.23;;
62790;SDS011;48830;53.426;10.300;2023-02-11T05:36:10;27.13;;;13.80;;
62790;SDS011;48830;53.426;10.300;2023-02-11T05:38:37;27.90;;;14.63;;
62790;SDS011;48830;53.426;10.300;2023-02-11T05:41:04;29.53;;;14.67;;
62790;SDS011;48830;53.426;10.300;2023-02-11T05:43:30;27.00;;;15.00;;
62790;SDS011;48830;53.426;10.300;2023-02-11T05:45:56;35.43;;;14.10;;
62790;SDS011;48830;53.426;10.300;2023-02-11T05:48:21;29.27;;;14.07;;
62790;SDS011;48830;53.426;10.300;2023-02-11T05:50:47;25.77;;;14.03;;
62790;SDS011;48830;53.426;10.300;2023-02-11T05:53:13;29.17;;;14.40;;
62790;SDS011;48830;53.426;10.300;2023-02-11T05:55:38;29.17;;;13.23;;
62790;SDS011;48830;53.426;10.300;2023-02-11T05:58:04;25.30;;;13.40;;
62790;SDS011;48830;53.426;10.300;2023-02-11T06:00:29;28.33;;;15.07;;
62790;SDS011;48830;53.426;10.300;2023-02-11T06:02:55;28.63;;;13.80;;
62790;SDS011;48830;53.426;10.300;2023-02-11T06:05:20;27.93;;;13.73;;
62790;SDS011;48830;53.426;10.300;2023-02-11T06:07:46;25.47;;;13.50;;
62790;SDS011;48830;53.426;10.300;2023-02-11T06:10:11;26.20;;;13.63;;
62790;SDS011;48830;53.426;10.300;2023-02-11T06:12:37;29.40;;;12.87;;
62790;SDS011;48830;53.426;10.300;2023-02-11T06:15:03;23.67;;;12.80;;
62790;SDS011;48830;53.426;10.300;2023-02-11T06:17:30;26.17;;;13.37;;
62790;SDS011;48830;53.426;10.300;2023-02-11T06:19:57;26.07;;;12.57;;
62790;SDS011;48830;53.426;10.300;2023-02-11T06:22:23;21.83;;;11.63;;
62790;SDS011;48830;53.426;10.300;2023-02-11T06:24:49;22.63;;;12.90;;
62790;SDS011;48830;53.426;10.300;2023-02-11T06:27:14;26.93;;;13.50;;
62790;SDS011;48830;53.426;10.300;2023-02-11T06:29:40;31.53;;;12.33;;
62790;SDS011;48830;53.426;10.300;2023-02-11T06:32:05;23.97;;;11.80;;
62790;SDS011;48830;53.426;10.300;2023-02-11T06:34:30;25.80;;;13.43;;
62790;SDS011;48830;53.426;10.300;2023-02-11T06:36:56;25.13;;;13.80;;
62790;SDS011;48830;53.426;10.300;2023-02-11T06:39:21;26.73;;;12.70;;
62790;SDS011;48830;53.426;10.300;2023-02-11T06:41:47;21.90;;;11.60;;
62790;SDS011;48830;53.426;10.300;2023-02-11T06:44:12;25.70;;;12.20;;
62790;SDS011;48830;53.426;10.300;2023-02-11T06:46:37;27.20;;;13.80;;
62790;SDS011;48830;53.426;10.300;2023-02-11T06:49:03;22.30;;;13.53;;
62790;SDS011;48830;53.426;10.300;2023-02-11T06:51:28;22.27;;;12.97;;
62790;SDS011;48830;53.426;10.300;2023-02-11T06:53:54;24.53;;;13.33;;
62790;SDS011;48830;53.426;10.300;2023-02-11T06:56:20;22.43;;;12.23;;
62790;SDS011;48830;53.426;10.300;2023-02-11T06:58:47;27.27;;;12.77;;
62790;SDS011;48830;53.426;10.300;2023-02-11T07:01:14;25.00;;;12.13;;
62790;SDS011;48830;53.426;10.300;2023-02-11T07:03:40;23.77;;;12.37;;
62790;SDS011;48830;53.426;10.300;2023-02-11T07:06:10;24.43;;;12.87;;
62790;SDS011;48830;53.426;10.300;2023-02-11T07:08:37;22.57;;;11.43;;
62790;SDS011;48830;53.426;10.300;2023-02-11T07:11:10;21.00;;;12.10;;
62790;SDS011;48830;53.426;10.300;2023-02-11T07:13:39;19.73;;;11.57;;
62790;SDS011;48830;53.426;10.300;2023-02-11T07:16:06;21.57;;;11.00;;
62790;SDS011;48830;53.426;10.300;2023-02-11T07:18:32;19.43;;;10.70;;
62790;SDS011;48830;53.426;10.300;2023-02-11T07:20:58;27.77;;;11.63;;
62790;SDS011;48830;53.426;10.300;2023-02-11T07:23:23;23.47;;;11.23;;
62790;SDS011;48830;53.426;10.300;2023-02-11T07:25:49;20.20;;;11.13;;
62790;SDS011;48830;53.426;10.300;2023-02-11T07:28:14;21.83;;;12.00;;
62790;SDS011;48830;53.426;10.300;2023-02-11T07:30:39;21.90;;;11.27;;
62790;SDS011;48830;53.426;10.300;2023-02-11T07:33:05;19.53;;;11.33;;
62790;SDS011;48830;53.426;10.300;2023-02-11T07:35:30;19.57;;;12.07;;
62790;SDS011;48830;53.426;10.300;2023-02-11T07:37:56;21.70;;;11.07;;
62790;SDS011;48830;53.426;10.300;2023-02-11T07:40:21;19.67;;;11.13;;
62790;SDS011;48830;53.426;10.300;2023-02-11T07:42:46;23.20;;;11.30;;
62790;SDS011;48830;53.426;10.300;2023-02-11T07:45:12;19.57;;;11.17;;
62790;SDS011;48830;53.426;10.300;2023-02-11T07:47:38;17.93;;;10.67;;
62790;SDS011;48830;53.426;10.300;2023-02-11T07:50:03;17.50;;;10.13;;
62790;SDS011;48830;53.426;10.300;2023-02-11T07:52:31;24.03;;;11.73;;
62790;SDS011;48830;53.426;10.300;2023-02-11T07:54:56;20.70;;;11.70;;
62790;SDS011;48830;53.426;10.300;2023-02-11T07:57:22;22.10;;;11.40;;
62790;SDS011;48830;53.426;10.300;2023-02-11T07:59:47;23.20;;;11.77;;
62790;SDS011;48830;53.426;10.300;2023-02-11T08:02:13;21.83;;;12.30;;
62790;SDS011;48830;53.426;10.300;2023-02-11T08:04:38;25.70;;;12.13;;
62790;SDS011;48830;53.426;10.300;2023-02-11T08:07:03;19.07;;;11.17;;
62790;SDS011;48830;53.426;10.300;2023-02-11T08:09:29;20.47;;;10.83;;
62790;SDS011;48830;53.426;10.300;2023-02-11T08:11:54;21.00;;;11.10;;
62790;SDS011;48830;53.426;10.300;2023-02-11T08:14:20;21.00;;;11.10;;
62790;SDS011;48830;53.426;10.300;2023-02-11T08:16:45;17.97;;;11.33;;
62790;SDS011;48830;53.426;10.300;2023-02-11T08:19:12;19.83;;;12.27;;
62790;SDS011;48830;53.426;10.300;2023-02-11T08:21:40;22.53;;;11.40;;
62790;SDS011;48830;53.426;10.300;2023-02-11T08:24:06;19.70;;;11.00;;
62790;SDS011;48830;53.426;10.300;2023-02-11T08:26:32;18.13;;;10.50;;
62790;SDS011;48830;53.426;10.300;2023-02-11T08:28:59;20.33;;;10.70;;
62790;SDS011;48830;53.426;10.300;2023-02-11T08:31:27;18.23;;;10.97;;
62790;SDS011;48830;53.426;10.300;2023-02-11T08:33:55;20.30;;;11.07;;
62790;SDS011;48830;53.426;10.300;2023-02-11T08:36:26;18.43;;;11.13;;
62790;SDS011;48830;53.426;10.300;2023-02-11T08:38:58;23.40;;;11.73;;
62790;SDS011;48830;53.426;10.300;2023-02-11T08:41:26;21.27;;;11.13;;
62790;SDS011;48830;53.426;10.300;2023-02-11T08:43:51;23.60;;;11.00;;
62790;SDS011;48830;53.426;10.300;2023-02-11T08:46:17;18.20;;;10.37;;
62790;SDS011;48830;53.426;10.300;2023-02-11T08:48:44;17.90;;;10.73;;
62790;SDS011;48830;53.426;10.300;2023-02-11T08:51:13;16.33;;;10.17;;
62790;SDS011;48830;53.426;10.300;2023-02-11T08:53:41;21.53;;;10.67;;
62790;SDS011;48830;53.426;10.300;2023-02-11T08:56:07;16.40;;;10.27;;
62790;SDS011;48830;53.426;10.300;2023-02-11T08:58:34;19.47;;;11.27;;
62790;SDS011;48830;53.426;10.300;2023-02-11T09:00:59;20.10;;;10.80;;
62790;SDS011;48830;53.426;10.300;2023-02-11T09:03:24;18.60;;;10.63;;
62790;SDS011;48830;53.426;10.300;2023-02-11T09:05:50;18.27;;;10.93;;
62790;SDS011;48830;53.426;10.300;2023-02-11T09:08:17;17.63;;;10.27;;
62790;SDS011;48830;53.426;10.300;2023-02-11T09:10:44;17.37;;;10.07;;
62790;SDS011;48830;53.426;10.300;2023-02-11T09:13:10;19.77;;;9.90;;
62790;SDS011;48830;53.426;10.300;2023-02-11T09:15:36;15.40;;;9.43;;
62790;SDS011;48830;53.426;10.300;2023-02-11T09:18:02;20.17;;;9.57;;
62790;SDS011;48830;53.426;10.300;2023-02-11T09:20:28;18.27;;;9.27;;
62790;SDS011;48830;53.426;10.300;2023-02-11T09:22:56;15.63;;;9.03;;
62790;SDS011;48830;53.426;10.300;2023-02-11T09:25:22;14.87;;;8.97;;
62790;SDS011;48830;53.426;10.300;2023-02-11T09:27:48;16.73;;;8.97;;
62790;SDS011;48830;53.426;10.300;2023-02-11T09:30:15;17.50;;;10.53;;
62790;SDS011;48830;53.426;10.300;2023-02-11T09:32:41;16.97;;;9.10;;
62790;SDS011;48830;53.426;10.300;2023-02-11T09:35:06;16.17;;;8.33;;
62790;SDS011;48830;53.426;10.300;2023-02-11T09:37:32;18.70;;;9.07;;
62790;SDS011;48830;53.426;10.300;2023-02-11T09:39:57;15.13;;;9.37;;
62790;SDS011;48830;53.426;10.300;2023-02-11T09:45:23;18.87;;;8.70;;
62790;SDS011;48830;53.426;10.300;2023-02-11T09:52:53;19.57;;;9.33;;
62790;SDS011;48830;53.426;10.300;2023-02-11T09:55:26;15.50;;;7.93;;
62790;SDS011;48830;53.426;10.300;2023-02-11T09:57:59;16.00;;;8.07;;
62790;SDS011;48830;53.426;10.300;2023-02-11T10:00:32;17.53;;;8.40;;
62790;SDS011;48830;53.426;10.300;2023-02-11T10:11:07;18.63;;;8.20;;
62790;SDS011;48830;53.426;10.300;2023-02-11T10:13:39;18.57;;;8.13;;
62790;SDS011;48830;53.426;10.300;2023-02-11T10:16:20;14.97;;;7.63;;
62790;SDS011;48830;53.426;10.300;2023-02-11T10:21:47;15.37;;;7.70;;
62790;SDS011;48830;53.426;10.300;2023-02-11T10:24:22;15.90;;;7.60;;
62790;SDS011;48830;53.426;10.300;2023-02-11T10:26:48;13.67;;;7.17;;
62790;SDS011;48830;53.426;10.300;2023-02-11T10:32:25;17.70;;;7.33;;
62790;SDS011;48830;53.426;10.300;2023-02-11T10:34:52;18.07;;;8.40;;
62790;SDS011;48830;53.426;10.300;2023-02-11T10:37:22;15.13;;;8.10;;
62790;SDS011;48830;53.426;10.300;2023-02-11T10:39:48;15.53;;;7.37;;
62790;SDS011;48830;53.426;10.300;2023-02-11T10:42:13;14.47;;;7.23;;
62790;SDS011;48830;53.426;10.300;2023-02-11T10:44:46;12.47;;;7.80;;
62790;SDS011;48830;53.426;10.300;2023-02-11T10:47:18;19.40;;;7.93;;
62790;SDS011;48830;53.426;10.300;2023-02-11T10:49:46;18.83;;;8.07;;
62790;SDS011;48830;53.426;10.300;2023-02-11T10:52:14;18.53;;;8.10;;
62790;SDS011;48830;53.426;10.300;2023-02-11T10:55:00;21.83;;;8.30;;
62790;SDS011;48830;53.426;10.300;2023-02-11T10:57:35;18.17;;;8.20;;
62790;SDS011;48830;53.426;10.300;2023-02-11T11:00:22;17.87;;;8.77;;
62790;SDS011;48830;53.426;10.300;2023-02-11T11:03:00;17.47;;;8.40;;
62790;SDS011;48830;53.426;10.300;2023-02-11T11:05:44;19.83;;;9.20;;
62790;SDS011;48830;53.426;10.300;2023-02-11T11:11:11;17.77;;;8.67;;
62790;SDS011;48830;53.426;10.300;2023-02-11T11:13:39;17.23;;;9.40;;
62790;SDS011;48830;53.426;10.300;2023-02-11T11:18:45;17.90;;;8.53;;
62790;SDS011;48830;53.426;10.300;2023-02-11T11:23:48;16.47;;;7.57;;
62790;SDS011;48830;53.426;10.300;2023-02-11T11:26:17;16.57;;;7.27;;
62790;SDS011;48830;53.426;10.300;2023-02-11T11:31:19;18.70;;;8.50;;
62790;SDS011;48830;53.426;10.300;2023-02-11T11:33:47;15.10;;;7.13;;
62790;SDS011;48830;53.426;10.300;2023-02-11T11:36:19;15.40;;;7.40;;
62790;SDS011;48830;53.426;10.300;2023-02-11T11:38:56;12.20;;;6.63;;
62790;SDS011;48830;53.426;10.300;2023-02-11T11:41:25;14.00;;;7.13;;
62790;SDS011;48830;53.426;10.300;2023-02-11T11:46:42;14.30;;;6.80;;
62790;SDS011;48830;53.426;10.300;2023-02-11T11:49:19;15.83;;;7.03;;
62790;SDS011;48830;53.426;10.300;2023-02-11T11:54:35;12.40;;;6.30;;
62790;SDS011;48830;53.426;10.300;2023-02-11T11:57:04;16.27;;;7.07;;
62790;SDS011;48830;53.426;10.300;2023-02-11T11:59:38;14.93;;;7.30;;
62790;SDS011;48830;53.426;10.300;2023-02-11T12:10:49;14.57;;;6.73;;
62790;SDS011;48830;53.426;10.300;2023-02-11T12:18:35;16.40;;;6.13;;
62790;SDS011;48830;53.426;10.300;2023-02-11T12:44:04;14.80;;;6.80;;
62790;SDS011;48830;53.426;10.300;2023-02-11T12:46:33;15.17;;;6.77;;
62790;SDS011;48830;53.426;10.300;2023-02-11T12:57:45;13.33;;;6.37;;
62790;SDS011;48830;53.426;10.300;2023-02-11T13:00:32;14.93;;;6.73;;
62790;SDS011;48830;53.426;10.300;2023-02-11T13:03:22;15.47;;;6.90;;
62790;SDS011;48830;53.426;10.300;2023-02-11T13:05:53;10.97;;;6.43;;
62790;SDS011;48830;53.426;10.300;2023-02-11T13:10:53;11.33;;;5.97;;
62790;SDS011;48830;53.426;10.300;2023-02-11T13:13:24;15.97;;;6.97;;
62790;SDS011;48830;53.426;10.300;2023-02-11T13:15:58;14.20;;;7.43;;
62790;SDS011;48830;53.426;10.300;2023-02-11T13:18:38;11.47;;;6.30;;
62790;SDS011;48830;53.426;10.300;2023-02-11T13:21:18;17.33;;;6.40;;
62790;SDS011;48830;53.426;10.300;2023-02-11T13:29:23;8.87;;;5.00;;
62790;SDS011;48830;53.426;10.300;2023-02-11T13:37:04;10.40;;;4.23;;
62790;SDS011;48830;53.426;10.300;2023-02-11T13:39:30;10.57;;;5.30;;
62790;SDS011;48830;53.426;10.300;2023-02-11T13:42:00;11.60;;;5.70;;
62790;SDS011;48830;53.426;10.300;2023-02-11T13:44:28;14.40;;;6.27;;
62790;SDS011;48830;53.426;10.300;2023-02-11T13:55:04;9.97;;;4.57;;
62790;SDS011;48830;53.426;10.300;2023-02-11T13:57:40;6.70;;;3.47;;
62790;SDS011;48830;53.426;10.300;2023-02-11T14:08:58;13.03;;;6.33;;
62790;SDS011;48830;53.426;10.300;2023-02-11T14:16:26;11.80;;;6.80;;
62790;SDS011;48830;53.426;10.300;2023-02-11T14:40:33;17.30;;;9.13;;
62790;SDS011;48830;53.426;10.300;2023-02-11T14:43:29;15.33;;;8.20;;
62790;SDS011;48830;53.426;10.300;2023-02-11T14:45:57;18.10;;;8.50;;
62790;SDS011;48830;53.426;10.300;2023-02-11T14:48:30;18.67;;;8.77;;
62790;SDS011;48830;53.426;10.300;2023-02-11T14:51:02;21.73;;;8.80;;
62790;SDS011;48830;53.426;10.300;2023-02-11T14:53:32;18.97;;;8.93;;
62790;SDS011;48830;53.426;10.300;2023-02-11T14:55:59;16.77;;;7.43;;
62790;SDS011;48830;53.426;10.300;2023-02-11T14:58:28;16.73;;;6.90;;
62790;SDS011;48830;53.426;10.300;2023-02-11T15:01:02;19.20;;;7.43;;
62790;SDS011;48830;53.426;10.300;2023-02-11T15:03:40;15.60;;;6.03;;
62790;SDS011;48830;53.426;10.300;2023-02-11T15:06:27;14.30;;;6.57;;
62790;SDS011;48830;53.426;10.300;2023-02-11T15:09:15;16.83;;;6.23;;
62790;SDS011;48830;53.426;10.300;2023-02-11T15:11:42;24.03;;;7.67;;
62790;SDS011;48830;53.426;10.300;2023-02-11T15:14:10;15.93;;;7.53;;
62790;SDS011;48830;53.426;10.300;2023-02-11T15:16:43;16.27;;;6.03;;
62790;SDS011;48830;53.426;10.300;2023-02-11T15:19:17;18.17;;;6.80;;
62790;SDS011;48830;53.426;10.300;2023-02-11T15:21:45;17.70;;;7.37;;
62790;SDS011;48830;53.426;10.300;2023-02-11T15:29:43;19.27;;;9.13;;
62790;SDS011;48830;53.426;10.300;2023-02-11T15:32:12;26.73;;;10.70;;
62790;SDS011;48830;53.426;10.300;2023-02-11T15:34:40;26.70;;;11.53;;
62790;SDS011;48830;53.426;10.300;2023-02-11T15:37:06;22.13;;;11.93;;
62790;SDS011;48830;53.426;10.300;2023-02-11T15:39:39;26.27;;;13.47;;
62790;SDS011;48830;53.426;10.300;2023-02-11T15:44:43;25.03;;;13.37;;
62790;SDS011;48830;53.426;10.300;2023-02-11T15:47:10;23.77;;;12.97;;
62790;SDS011;48830;53.426;10.300;2023-02-11T15:49:42;28.50;;;13.90;;
62790;SDS011;48830;53.426;10.300;2023-02-11T15:52:09;25.80;;;12.97;;
62790;SDS011;48830;53.426;10.300;2023-02-11T15:54:36;30.63;;;14.40;;
62790;SDS011;48830;53.426;10.300;2023-02-11T15:57:03;26.67;;;13.73;;
62790;SDS011;48830;53.426;10.300;2023-02-11T15:59:34;28.87;;;14.50;;
62790;SDS011;48830;53.426;10.300;2023-02-11T16:02:16;27.70;;;14.53;;
62790;SDS011;48830;53.426;10.300;2023-02-11T16:04:59;30.40;;;16.63;;
62790;SDS011;48830;53.426;10.300;2023-02-11T16:07:42;30.63;;;15.47;;
62790;SDS011;48830;53.426;10.300;2023-02-11T16:10:18;29.73;;;14.03;;
62790;SDS011;48830;53.426;10.300;2023-02-11T16:12:53;28.10;;;14.87;;
62790;SDS011;48830;53.426;10.300;2023-02-11T16:18:19;28.30;;;14.80;;
62790;SDS011;48830;53.426;10.300;2023-02-11T16:20:52;31.30;;;14.57;;
62790;SDS011;48830;53.426;10.300;2023-02-11T16:23:39;26.63;;;13.00;;
62790;SDS011;48830;53.426;10.300;2023-02-11T16:26:11;27.40;;;12.27;;
62790;SDS011;48830;53.426;10.300;2023-02-11T16:28:46;34.33;;;13.47;;
62790;SDS011;48830;53.426;10.300;2023-02-11T16:31:11;29.07;;;12.83;;
62790;SDS011;48830;53.426;10.300;2023-02-11T16:33:37;29.97;;;13.30;;
62790;SDS011;48830;53.426;10.300;2023-02-11T16:36:13;28.07;;;12.57;;
62790;SDS011;48830;53.426;10.300;2023-02-11T16:38:41;27.77;;;14.13;;
62790;SDS011;48830;53.426;10.300;2023-02-11T16:41:06;29.90;;;13.33;;
62790;SDS011;48830;53.426;10.300;2023-02-11T16:43:36;32.73;;;13.03;;
62790;SDS011;48830;53.426;10.300;2023-02-11T16:46:01;29.80;;;12.50;;
62790;SDS011;48830;53.426;10.300;2023-02-11T16:48:28;28.40;;;12.67;;
62790;SDS011;48830;53.426;10.300;2023-02-11T16:50:53;27.17;;;12.70;;
62790;SDS011;48830;53.426;10.300;2023-02-11T16:53:22;31.93;;;13.80;;
62790;SDS011;48830;53.426;10.300;2023-02-11T16:55:49;33.20;;;13.50;;
62790;SDS011;48830;53.426;10.300;2023-02-11T16:58:16;31.87;;;14.27;;
62790;SDS011;48830;53.426;10.300;2023-02-11T17:00:42;31.67;;;14.13;;
62790;SDS011;48830;53.426;10.300;2023-02-11T17:03:10;32.03;;;12.17;;
62790;SDS011;48830;53.426;10.300;2023-02-11T17:05:41;27.20;;;9.00;;
62790;SDS011;48830;53.426;10.300;2023-02-11T17:08:08;19.90;;;8.30;;
62790;SDS011;48830;53.426;10.300;2023-02-11T17:10:35;21.67;;;8.50;;
62790;SDS011;48830;53.426;10.300;2023-02-11T17:13:01;19.33;;;7.77;;
62790;SDS011;48830;53.426;10.300;2023-02-11T17:15:29;24.67;;;10.23;;
62790;SDS011;48830;53.426;10.300;2023-02-11T17:17:54;23.83;;;8.80;;
62790;SDS011;48830;53.426;10.300;2023-02-11T17:20:20;25.77;;;9.73;;
62790;SDS011;48830;53.426;10.300;2023-02-11T17:22:46;31.00;;;10.97;;
62790;SDS011;48830;53.426;10.300;2023-02-11T17:25:11;35.50;;;11.53;;
62790;SDS011;48830;53.426;10.300;2023-02-11T17:27:37;33.10;;;10.67;;
62790;SDS011;48830;53.426;10.300;2023-02-11T17:30:03;28.20;;;11.40;;
62790;SDS011;48830;53.426;10.300;2023-02-11T17:32:29;35.87;;;12.33;;